sensor_id;sensor_type;location;lat;lon;timestamp;temperature;humidity
1377;DHT22;682;52.502;13.488;2024-01-15T00:01:31;2.80;1.00
1377;DHT22;682;52.502;13.488;2024-01-15T00:04:05;2.70;1.00
1377;DHT22;682;52.502;13.488;2024-01-15T00:06:32;2.70;1.00
1377;DHT22;682;52.502;13.488;2024-01-15T00:08:59;2.70;1.00
1377;DHT22;682;52.502;13.488;2024-01-15T00:11:27;2.60;1.00
1377;DHT22;682;52.502;13.488;2024-01-15T00:13:55;2.60;1.00
1377;DHT22;682;52.502;13.488;2024-01-15T00:16:22;2.60;1.00
1377;DHT22;682;52.502;13.488;2024-01-15T00:18:49;2.60;1.00
1377;DHT22;682;52.502;13.488;2024-01-15T00:21:25;2.60;1.00
1377;DHT22;682;52.502;13.488;2024-01-15T00:23:53;2.60;1.00
1377;DHT22;682;52.502;13.488;2024-01-15T00:26:20;2.50;1.00
1377;DHT22;682;52.502;13.488;2024-01-15T00:28:47;2.60;1.00
1377;DHT22;682;52.502;13.488;2024-01-15T00:31:16;2.60;1.00
1377;DHT22;682;52.502;13.488;2024-01-15T00:33:43;2.50;1.00
1377;DHT22;682;52.502;13.488;2024-01-15T00:36:10;2.50;1.00
1377;DHT22;682;52.502;13.488;2024-01-15T00:38:38;2.50;1.00
1377;DHT22;682;52.502;13.488;2024-01-15T00:41:05;2.50;1.00
1377;DHT22;682;52.502;13.488;2024-01-15T00:43:32;2.50;1.00
1377;DHT22;682;52.502;13.488;2024-01-15T00:46:02;2.50;1.00
1377;DHT22;682;52.502;13.488;2024-01-15T00:48:29;2.50;1.00
1377;DHT22;682;52.502;13.488;2024-01-15T00:50:56;2.50;1.00
1377;DHT22;682;52.502;13.488;2024-01-15T00:53:26;2.60;1.00
1377;DHT22;682;52.502;13.488;2024-01-15T00:55:55;2.60;1.00
1377;DHT22;682;52.502;13.488;2024-01-15T00:58:21;2.60;1.00
1377;DHT22;682;52.502;13.488;2024-01-15T01:00:48;2.60;1.00
1377;DHT22;682;52.502;13.488;2024-01-15T01:03:16;2.60;1.00
1377;DHT22;682;52.502;13.488;2024-01-15T01:05:43;2.60;1.00
1377;DHT22;682;52.502;13.488;2024-01-15T01:08:10;2.60;1.00
1377;DHT22;682;52.502;13.488;2024-01-15T01:10:37;2.50;1.00
1377;DHT22;682;52.502;13.488;2024-01-15T01:13:10;2.50;1.00
1377;DHT22;682;52.502;13.488;2024-01-15T01:15:37;2.40;1.00
1377;DHT22;682;52.502;13.488;2024-01-15T01:18:04;2.30;1.00
1377;DHT22;682;52.502;13.488;2024-01-15T01:20:31;2.30;1.00
1377;DHT22;682;52.502;13.488;2024-01-15T01:22:58;2.30;1.00
1377;DHT22;682;52.502;13.488;2024-01-15T01:25:25;2.20;1.00
1377;DHT22;682;52.502;13.488;2024-01-15T01:27:52;2.20;1.00
1377;DHT22;682;52.502;13.488;2024-01-15T01:30:21;2.10;1.00
1377;DHT22;682;52.502;13.488;2024-01-15T01:32:48;2.00;1.00
1377;DHT22;682;52.502;13.488;2024-01-15T01:35:15;2.00;1.00
1377;DHT22;682;52.502;13.488;2024-01-15T01:37:42;2.00;1.00
1377;DHT22;682;52.502;13.488;2024-01-15T01:40:09;2.00;1.00
1377;DHT22;682;52.502;13.488;2024-01-15T01:42:36;2.00;1.00
1377;DHT22;682;52.502;13.488;2024-01-15T01:45:05;2.00;1.00
1377;DHT22;682;52.502;13.488;2024-01-15T01:47:33;2.00;1.00
1377;DHT22;682;52.502;13.488;2024-01-15T01:50:01;2.00;1.00
1377;DHT22;682;52.502;13.488;2024-01-15T01:52:29;2.00;1.00
1377;DHT22;682;52.502;13.488;2024-01-15T01:54:56;1.90;1.00
1377;DHT22;682;52.502;13.488;2024-01-15T01:57:23;1.80;1.00
1377;DHT22;682;52.502;13.488;2024-01-15T01:59:51;1.70;1.00
1377;DHT22;682;52.502;13.488;2024-01-15T02:02:18;1.70;1.00
1377;DHT22;682;52.502;13.488;2024-01-15T02:04:49;1.70;1.00
1377;DHT22;682;52.502;13.488;2024-01-15T02:07:17;1.80;1.00
1377;DHT22;682;52.502;13.488;2024-01-15T02:09:44;1.80;1.00
1377;DHT22;682;52.502;13.488;2024-01-15T02:12:12;1.80;1.00
1377;DHT22;682;52.502;13.488;2024-01-15T02:14:39;1.80;1.00
1377;DHT22;682;52.502;13.488;2024-01-15T02:17:06;1.80;1.00
1377;DHT22;682;52.502;13.488;2024-01-15T02:19:33;1.80;1.00
1377;DHT22;682;52.502;13.488;2024-01-15T02:22:02;1.70;1.00
1377;DHT22;682;52.502;13.488;2024-01-15T02:24:30;1.70;1.00
1377;DHT22;682;52.502;13.488;2024-01-15T02:26:58;1.60;1.00
1377;DHT22;682;52.502;13.488;2024-01-15T02:29:25;1.60;1.00
1377;DHT22;682;52.502;13.488;2024-01-15T02:31:52;1.60;1.00
1377;DHT22;682;52.502;13.488;2024-01-15T02:34:18;1.60;1.00
1377;DHT22;682;52.502;13.488;2024-01-15T02:36:46;1.60;1.00
1377;DHT22;682;52.502;13.488;2024-01-15T02:39:13;1.60;1.00
1377;DHT22;682;52.502;13.488;2024-01-15T02:41:42;1.60;1.00
1377;DHT22;682;52.502;13.488;2024-01-15T02:44:09;1.60;1.00
1377;DHT22;682;52.502;13.488;2024-01-15T02:46:36;1.60;1.00
1377;DHT22;682;52.502;13.488;2024-01-15T02:49:04;1.60;1.00
1377;DHT22;682;52.502;13.488;2024-01-15T02:51:31;1.60;1.00
1377;DHT22;682;52.502;13.488;2024-01-15T02:53:58;1.60;1.00
1377;DHT22;682;52.502;13.488;2024-01-15T02:56:25;1.50;1.00
1377;DHT22;682;52.502;13.488;2024-01-15T02:58:55;1.50;1.00
1377;DHT22;682;52.502;13.488;2024-01-15T03:01:22;1.50;1.00
1377;DHT22;682;52.502;13.488;2024-01-15T03:03:49;1.60;1.00
1377;DHT22;682;52.502;13.488;2024-01-15T03:06:16;1.60;1.00
1377;DHT22;682;52.502;13.488;2024-01-15T03:08:43;1.60;1.00
1377;DHT22;682;52.502;13.488;2024-01-15T03:11:10;1.60;1.00
1377;DHT22;682;52.502;13.488;2024-01-15T03:13:37;1.60;1.00
1377;DHT22;682;52.502;13.488;2024-01-15T03:16:06;1.60;1.00
1377;DHT22;682;52.502;13.488;2024-01-15T03:18:32;1.70;1.00
1377;DHT22;682;52.502;13.488;2024-01-15T03:20:59;1.70;1.00
1377;DHT22;682;52.502;13.488;2024-01-15T03:23:29;1.70;1.00
1377;DHT22;682;52.502;13.488;2024-01-15T03:25:56;1.70;1.00
1377;DHT22;682;52.502;13.488;2024-01-15T03:28:23;1.70;1.00
1377;DHT22;682;52.502;13.488;2024-01-15T03:30:51;1.70;1.00
1377;DHT22;682;52.502;13.488;2024-01-15T03:33:20;1.70;1.00
1377;DHT22;682;52.502;13.488;2024-01-15T03:35:46;1.80;1.00
1377;DHT22;682;52.502;13.488;2024-01-15T03:38:14;1.80;1.00
1377;DHT22;682;52.502;13.488;2024-01-15T03:40:41;1.70;1.00
1377;DHT22;682;52.502;13.488;2024-01-15T03:43:08;1.70;1.00
1377;DHT22;682;52.502;13.488;2024-01-15T03:45:35;1.70;1.00
1377;DHT22;682;52.502;13.488;2024-01-15T03:48:03;1.70;1.00
1377;DHT22;682;52.502;13.488;2024-01-15T03:50:33;1.70;1.00
1377;DHT22;682;52.502;13.488;2024-01-15T03:53:00;1.70;1.00
1377;DHT22;682;52.502;13.488;2024-01-15T03:55:26;1.70;1.00
1377;DHT22;682;52.502;13.488;2024-01-15T03:57:53;1.70;1.00
1377;DHT22;682;52.502;13.488;2024-01-15T04:00:21;1.80;1.00
1377;DHT22;682;52.502;13.488;2024-01-15T04:02:48;1.80;1.00
1377;DHT22;682;52.502;13.488;2024-01-15T04:05:16;1.80;1.00
1377;DHT22;682;52.502;13.488;2024-01-15T04:07:45;1.80;1.00
1377;DHT22;682;52.502;13.488;2024-01-15T04:10:12;1.80;1.00
1377;DHT22;682;52.502;13.488;2024-01-15T04:12:39;1.80;1.00
1377;DHT22;682;52.502;13.488;2024-01-15T04:15:07;1.80;1.00
1377;DHT22;682;52.502;13.488;2024-01-15T04:17:34;1.80;1.00
1377;DHT22;682;52.502;13.488;2024-01-15T04:20:03;1.80;1.00
1377;DHT22;682;52.502;13.488;2024-01-15T04:22:30;1.80;1.00
1377;DHT22;682;52.502;13.488;2024-01-15T04:24:59;1.80;1.00
1377;DHT22;682;52.502;13.488;2024-01-15T04:27:29;1.80;1.00
1377;DHT22;682;52.502;13.488;2024-01-15T04:29:56;1.80;1.00
1377;DHT22;682;52.502;13.488;2024-01-15T04:32:23;1.80;1.00
1377;DHT22;682;52.502;13.488;2024-01-15T04:34:51;1.90;1.00
1377;DHT22;682;52.502;13.488;2024-01-15T04:37:18;1.90;1.00
1377;DHT22;682;52.502;13.488;2024-01-15T04:39:44;1.90;1.00
1377;DHT22;682;52.502;13.488;2024-01-15T04:42:13;1.90;1.00
1377;DHT22;682;52.502;13.488;2024-01-15T04:44:40;2.00;1.00
1377;DHT22;682;52.502;13.488;2024-01-15T04:47:07;2.00;1.00
1377;DHT22;682;52.502;13.488;2024-01-15T04:49:34;2.00;1.00
1377;DHT22;682;52.502;13.488;2024-01-15T04:52:01;2.00;1.00
1377;DHT22;682;52.502;13.488;2024-01-15T04:54:28;2.00;1.00
1377;DHT22;682;52.502;13.488;2024-01-15T04:56:55;2.00;1.00
1377;DHT22;682;52.502;13.488;2024-01-15T04:59:23;2.00;1.00
1377;DHT22;682;52.502;13.488;2024-01-15T05:01:50;2.00;1.00
1377;DHT22;682;52.502;13.488;2024-01-15T05:04:18;2.00;1.00
1377;DHT22;682;52.502;13.488;2024-01-15T05:06:45;2.10;1.00
1377;DHT22;682;52.502;13.488;2024-01-15T05:09:12;2.10;1.00
1377;DHT22;682;52.502;13.488;2024-01-15T05:11:39;2.10;1.00
1377;DHT22;682;52.502;13.488;2024-01-15T05:14:07;2.20;1.00
1377;DHT22;682;52.502;13.488;2024-01-15T05:16:38;2.20;1.00
1377;DHT22;682;52.502;13.488;2024-01-15T05:19:07;2.20;1.00
1377;DHT22;682;52.502;13.488;2024-01-15T05:21:35;2.20;1.00
1377;DHT22;682;52.502;13.488;2024-01-15T05:24:02;2.30;1.00
1377;DHT22;682;52.502;13.488;2024-01-15T05:26:29;2.30;1.00
1377;DHT22;682;52.502;13.488;2024-01-15T05:28:56;2.30;1.00
1377;DHT22;682;52.502;13.488;2024-01-15T05:31:23;2.30;1.00
1377;DHT22;682;52.502;13.488;2024-01-15T05:33:52;2.30;1.00
1377;DHT22;682;52.502;13.488;2024-01-15T05:36:21;2.30;1.00
1377;DHT22;682;52.502;13.488;2024-01-15T05:38:48;2.30;1.00
1377;DHT22;682;52.502;13.488;2024-01-15T05:41:16;2.30;1.00
1377;DHT22;682;52.502;13.488;2024-01-15T05:43:42;2.30;1.00
1377;DHT22;682;52.502;13.488;2024-01-15T05:46:09;2.30;1.00
1377;DHT22;682;52.502;13.488;2024-01-15T05:48:36;2.30;1.00
1377;DHT22;682;52.502;13.488;2024-01-15T05:51:05;2.30;1.00
1377;DHT22;682;52.502;13.488;2024-01-15T05:53:32;2.40;1.00
1377;DHT22;682;52.502;13.488;2024-01-15T05:55:59;2.40;1.00
1377;DHT22;682;52.502;13.488;2024-01-15T05:58:27;2.50;1.00
1377;DHT22;682;52.502;13.488;2024-01-15T06:00:54;2.50;1.00
1377;DHT22;682;52.502;13.488;2024-01-15T06:03:22;2.60;1.00
1377;DHT22;682;52.502;13.488;2024-01-15T06:05:49;2.60;1.00
1377;DHT22;682;52.502;13.488;2024-01-15T06:08:17;2.60;1.00
1377;DHT22;682;52.502;13.488;2024-01-15T06:10:46;2.40;1.00
1377;DHT22;682;52.502;13.488;2024-01-15T06:13:13;2.40;1.00
1377;DHT22;682;52.502;13.488;2024-01-15T06:15:42;2.30;1.00
1377;DHT22;682;52.502;13.488;2024-01-15T06:18:10;2.30;1.00
1377;DHT22;682;52.502;13.488;2024-01-15T06:20:37;2.40;1.00
1377;DHT22;682;52.502;13.488;2024-01-15T06:23:04;2.40;1.00
1377;DHT22;682;52.502;13.488;2024-01-15T06:25:36;2.40;1.00
1377;DHT22;682;52.502;13.488;2024-01-15T06:28:04;2.40;1.00
1377;DHT22;682;52.502;13.488;2024-01-15T06:30:31;2.40;1.00
1377;DHT22;682;52.502;13.488;2024-01-15T06:32:58;2.40;1.00
1377;DHT22;682;52.502;13.488;2024-01-15T06:35:25;2.40;1.00
1377;DHT22;682;52.502;13.488;2024-01-15T06:37:52;2.40;1.00
1377;DHT22;682;52.502;13.488;2024-01-15T06:40:19;2.50;1.00
1377;DHT22;682;52.502;13.488;2024-01-15T06:42:47;2.50;1.00
1377;DHT22;682;52.502;13.488;2024-01-15T06:45:16;2.50;1.00
1377;DHT22;682;52.502;13.488;2024-01-15T06:47:43;2.50;1.00
1377;DHT22;682;52.502;13.488;2024-01-15T06:50:10;2.50;1.00
1377;DHT22;682;52.502;13.488;2024-01-15T06:52:37;2.60;1.00
1377;DHT22;682;52.502;13.488;2024-01-15T06:55:05;2.60;1.00
1377;DHT22;682;52.502;13.488;2024-01-15T06:57:32;2.60;1.00
1377;DHT22;682;52.502;13.488;2024-01-15T07:00:02;2.60;1.00
1377;DHT22;682;52.502;13.488;2024-01-15T07:02:33;2.60;1.00
1377;DHT22;682;52.502;13.488;2024-01-15T07:05:01;2.60;1.00
1377;DHT22;682;52.502;13.488;2024-01-15T07:07:30;2.60;1.00
1377;DHT22;682;52.502;13.488;2024-01-15T07:09:57;2.60;1.00
1377;DHT22;682;52.502;13.488;2024-01-15T07:12:26;2.60;1.00
1377;DHT22;682;52.502;13.488;2024-01-15T07:14:55;2.60;1.00
1377;DHT22;682;52.502;13.488;2024-01-15T07:17:23;2.60;1.00
1377;DHT22;682;52.502;13.488;2024-01-15T07:19:50;2.60;1.00
1377;DHT22;682;52.502;13.488;2024-01-15T07:22:22;2.60;1.00
1377;DHT22;682;52.502;13.488;2024-01-15T07:24:49;2.70;1.00
1377;DHT22;682;52.502;13.488;2024-01-15T07:27:20;2.80;1.00
1377;DHT22;682;52.502;13.488;2024-01-15T07:29:47;2.80;1.00
1377;DHT22;682;52.502;13.488;2024-01-15T07:32:17;2.80;1.00
1377;DHT22;682;52.502;13.488;2024-01-15T07:34:48;2.90;1.00
1377;DHT22;682;52.502;13.488;2024-01-15T07:37:15;2.80;1.00
1377;DHT22;682;52.502;13.488;2024-01-15T07:39:44;2.90;1.00
1377;DHT22;682;52.502;13.488;2024-01-15T07:42:11;2.90;1.00
1377;DHT22;682;52.502;13.488;2024-01-15T07:44:38;3.00;1.00
1377;DHT22;682;52.502;13.488;2024-01-15T07:47:05;3.00;1.00
1377;DHT22;682;52.502;13.488;2024-01-15T07:49:34;3.00;1.00
1377;DHT22;682;52.502;13.488;2024-01-15T07:52:03;3.00;1.00
1377;DHT22;682;52.502;13.488;2024-01-15T07:54:32;3.00;1.00
1377;DHT22;682;52.502;13.488;2024-01-15T07:57:02;3.10;1.00
1377;DHT22;682;52.502;13.488;2024-01-15T07:59:31;3.10;1.00
1377;DHT22;682;52.502;13.488;2024-01-15T08:01:59;3.10;1.00
1377;DHT22;682;52.502;13.488;2024-01-15T08:04:26;3.10;1.00
1377;DHT22;682;52.502;13.488;2024-01-15T08:06:53;3.10;1.00
1377;DHT22;682;52.502;13.488;2024-01-15T08:09:23;3.10;1.00
1377;DHT22;682;52.502;13.488;2024-01-15T08:11:50;3.10;1.00
1377;DHT22;682;52.502;13.488;2024-01-15T08:14:18;3.20;1.00
1377;DHT22;682;52.502;13.488;2024-01-15T08:16:45;3.20;1.00
1377;DHT22;682;52.502;13.488;2024-01-15T08:19:12;3.30;1.00
1377;DHT22;682;52.502;13.488;2024-01-15T08:21:40;3.30;1.00
1377;DHT22;682;52.502;13.488;2024-01-15T08:24:07;3.30;1.00
1377;DHT22;682;52.502;13.488;2024-01-15T08:26:36;3.30;1.00
1377;DHT22;682;52.502;13.488;2024-01-15T08:29:03;3.30;1.00
1377;DHT22;682;52.502;13.488;2024-01-15T08:31:30;3.30;1.00
1377;DHT22;682;52.502;13.488;2024-01-15T08:33:57;3.20;1.00
1377;DHT22;682;52.502;13.488;2024-01-15T08:36:25;3.20;1.00
1377;DHT22;682;52.502;13.488;2024-01-15T08:38:52;3.30;1.00
1377;DHT22;682;52.502;13.488;2024-01-15T08:41:20;3.20;1.00
1377;DHT22;682;52.502;13.488;2024-01-15T08:43:51;3.30;1.00
1377;DHT22;682;52.502;13.488;2024-01-15T08:46:18;3.30;1.00
1377;DHT22;682;52.502;13.488;2024-01-15T08:48:46;3.30;1.00
1377;DHT22;682;52.502;13.488;2024-01-15T08:51:13;3.30;1.00
1377;DHT22;682;52.502;13.488;2024-01-15T08:53:40;3.30;1.00
1377;DHT22;682;52.502;13.488;2024-01-15T08:56:07;3.40;1.00
1377;DHT22;682;52.502;13.488;2024-01-15T08:58:34;3.40;1.00
1377;DHT22;682;52.502;13.488;2024-01-15T09:01:02;3.40;1.00
1377;DHT22;682;52.502;13.488;2024-01-15T09:03:30;3.40;1.00
1377;DHT22;682;52.502;13.488;2024-01-15T09:05:58;3.40;1.00
1377;DHT22;682;52.502;13.488;2024-01-15T09:08:25;3.40;1.00
1377;DHT22;682;52.502;13.488;2024-01-15T09:10:53;3.40;1.00
1377;DHT22;682;52.502;13.488;2024-01-15T09:13:20;3.40;1.00
1377;DHT22;682;52.502;13.488;2024-01-15T09:15:47;3.40;1.00
1377;DHT22;682;52.502;13.488;2024-01-15T09:18:15;3.40;1.00
1377;DHT22;682;52.502;13.488;2024-01-15T09:20:42;3.40;1.00
1377;DHT22;682;52.502;13.488;2024-01-15T09:23:09;3.40;1.00
1377;DHT22;682;52.502;13.488;2024-01-15T09:25:37;3.40;1.00
1377;DHT22;682;52.502;13.488;2024-01-15T09:28:05;3.40;1.00
1377;DHT22;682;52.502;13.488;2024-01-15T09:30:33;3.30;1.00
1377;DHT22;682;52.502;13.488;2024-01-15T09:33:00;3.30;1.00
1377;DHT22;682;52.502;13.488;2024-01-15T09:35:29;3.40;1.00
1377;DHT22;682;52.502;13.488;2024-01-15T09:37:56;3.60;1.00
1377;DHT22;682;52.502;13.488;2024-01-15T09:40:24;3.60;1.00
1377;DHT22;682;52.502;13.488;2024-01-15T09:42:53;3.60;1.00
1377;DHT22;682;52.502;13.488;2024-01-15T09:45:20;3.40;1.00
1377;DHT22;682;52.502;13.488;2024-01-15T09:47:47;3.40;1.00
1377;DHT22;682;52.502;13.488;2024-01-15T09:50:15;3.50;1.00
1377;DHT22;682;52.502;13.488;2024-01-15T09:52:44;3.50;1.00
1377;DHT22;682;52.502;13.488;2024-01-15T09:55:11;3.70;1.00
1377;DHT22;682;52.502;13.488;2024-01-15T09:57:39;3.80;1.00
1377;DHT22;682;52.502;13.488;2024-01-15T10:00:07;3.80;1.00
1377;DHT22;682;52.502;13.488;2024-01-15T10:02:37;3.90;1.00
1377;DHT22;682;52.502;13.488;2024-01-15T10:05:04;3.90;1.00
1377;DHT22;682;52.502;13.488;2024-01-15T10:07:35;3.90;1.00
1377;DHT22;682;52.502;13.488;2024-01-15T10:10:05;4.00;1.00
1377;DHT22;682;52.502;13.488;2024-01-15T10:12:34;3.90;1.00
1377;DHT22;682;52.502;13.488;2024-01-15T10:15:01;3.90;1.00
1377;DHT22;682;52.502;13.488;2024-01-15T10:17:30;4.00;1.00
1377;DHT22;682;52.502;13.488;2024-01-15T10:20:00;4.00;1.00
1377;DHT22;682;52.502;13.488;2024-01-15T10:22:29;4.10;1.00
1377;DHT22;682;52.502;13.488;2024-01-15T10:24:57;4.10;1.00
1377;DHT22;682;52.502;13.488;2024-01-15T10:27:27;4.00;1.00
1377;DHT22;682;52.502;13.488;2024-01-15T10:29:59;3.90;1.00
1377;DHT22;682;52.502;13.488;2024-01-15T10:32:27;3.90;1.00
1377;DHT22;682;52.502;13.488;2024-01-15T10:34:56;4.00;1.00
1377;DHT22;682;52.502;13.488;2024-01-15T10:37:24;4.10;1.00
1377;DHT22;682;52.502;13.488;2024-01-15T10:39:52;4.00;1.00
1377;DHT22;682;52.502;13.488;2024-01-15T10:42:20;4.10;1.00
1377;DHT22;682;52.502;13.488;2024-01-15T10:44:51;4.10;1.00
1377;DHT22;682;52.502;13.488;2024-01-15T10:47:19;4.10;1.00
1377;DHT22;682;52.502;13.488;2024-01-15T10:49:46;4.10;1.00
1377;DHT22;682;52.502;13.488;2024-01-15T10:52:14;4.10;1.00
1377;DHT22;682;52.502;13.488;2024-01-15T10:54:43;4.10;1.00
1377;DHT22;682;52.502;13.488;2024-01-15T10:57:11;4.00;1.00
1377;DHT22;682;52.502;13.488;2024-01-15T10:59:40;4.10;1.00
1377;DHT22;682;52.502;13.488;2024-01-15T11:02:08;4.10;1.00
1377;DHT22;682;52.502;13.488;2024-01-15T11:04:36;4.00;1.00
1377;DHT22;682;52.502;13.488;2024-01-15T11:07:05;4.00;1.00
1377;DHT22;682;52.502;13.488;2024-01-15T11:09:33;4.10;1.00
1377;DHT22;682;52.502;13.488;2024-01-15T11:12:10;4.20;1.00
1377;DHT22;682;52.502;13.488;2024-01-15T11:14:41;4.30;1.00
1377;DHT22;682;52.502;13.488;2024-01-15T11:17:11;4.50;1.00
1377;DHT22;682;52.502;13.488;2024-01-15T11:19:42;4.60;1.00
1377;DHT22;682;52.502;13.488;2024-01-15T11:22:10;4.50;1.00
1377;DHT22;682;52.502;13.488;2024-01-15T11:24:38;4.40;1.00
1377;DHT22;682;52.502;13.488;2024-01-15T11:27:06;4.30;1.00
1377;DHT22;682;52.502;13.488;2024-01-15T11:29:34;4.20;1.00
1377;DHT22;682;52.502;13.488;2024-01-15T11:32:05;4.10;1.00
1377;DHT22;682;52.502;13.488;2024-01-15T11:34:54;4.00;1.00
1377;DHT22;682;52.502;13.488;2024-01-15T11:37:24;3.80;1.00
1377;DHT22;682;52.502;13.488;2024-01-15T11:39:54;3.90;1.00
1377;DHT22;682;52.502;13.488;2024-01-15T11:42:22;3.90;1.00
1377;DHT22;682;52.502;13.488;2024-01-15T11:44:49;3.90;1.00
1377;DHT22;682;52.502;13.488;2024-01-15T11:50:10;4.00;1.00
1377;DHT22;682;52.502;13.488;2024-01-15T11:52:38;4.00;1.00
1377;DHT22;682;52.502;13.488;2024-01-15T11:55:12;3.90;1.00
1377;DHT22;682;52.502;13.488;2024-01-15T11:57:42;3.90;1.00
1377;DHT22;682;52.502;13.488;2024-01-15T12:00:13;3.80;1.00
1377;DHT22;682;52.502;13.488;2024-01-15T12:02:41;3.50;1.00
1377;DHT22;682;52.502;13.488;2024-01-15T12:05:10;3.20;1.00
1377;DHT22;682;52.502;13.488;2024-01-15T12:07:38;3.00;1.00
1377;DHT22;682;52.502;13.488;2024-01-15T12:10:10;2.70;1.00
1377;DHT22;682;52.502;13.488;2024-01-15T12:12:53;2.60;1.00
1377;DHT22;682;52.502;13.488;2024-01-15T12:15:22;2.60;1.00
1377;DHT22;682;52.502;13.488;2024-01-15T12:17:51;2.60;1.00
1377;DHT22;682;52.502;13.488;2024-01-15T12:20:21;2.60;1.00
1377;DHT22;682;52.502;13.488;2024-01-15T12:22:49;2.60;1.00
1377;DHT22;682;52.502;13.488;2024-01-15T12:25:16;2.60;1.00
1377;DHT22;682;52.502;13.488;2024-01-15T12:27:43;2.60;1.00
1377;DHT22;682;52.502;13.488;2024-01-15T12:30:12;2.60;1.00
1377;DHT22;682;52.502;13.488;2024-01-15T12:32:41;2.60;1.00
1377;DHT22;682;52.502;13.488;2024-01-15T12:35:10;2.60;1.00
1377;DHT22;682;52.502;13.488;2024-01-15T12:37:39;2.60;1.00
1377;DHT22;682;52.502;13.488;2024-01-15T12:40:07;2.60;1.00
1377;DHT22;682;52.502;13.488;2024-01-15T12:42:35;2.60;1.00
1377;DHT22;682;52.502;13.488;2024-01-15T12:45:03;2.50;1.00
1377;DHT22;682;52.502;13.488;2024-01-15T12:47:32;2.50;1.00
1377;DHT22;682;52.502;13.488;2024-01-15T12:49:59;2.50;1.00
1377;DHT22;682;52.502;13.488;2024-01-15T12:52:27;2.40;1.00
1377;DHT22;682;52.502;13.488;2024-01-15T12:54:56;2.40;1.00
1377;DHT22;682;52.502;13.488;2024-01-15T12:57:23;2.40;1.00
1377;DHT22;682;52.502;13.488;2024-01-15T12:59:50;2.40;1.00
1377;DHT22;682;52.502;13.488;2024-01-15T13:02:18;2.40;1.00
1377;DHT22;682;52.502;13.488;2024-01-15T13:04:45;2.40;1.00
1377;DHT22;682;52.502;13.488;2024-01-15T13:07:12;2.40;1.00
1377;DHT22;682;52.502;13.488;2024-01-15T13:09:39;2.30;1.00
1377;DHT22;682;52.502;13.488;2024-01-15T13:12:08;2.30;1.00
1377;DHT22;682;52.502;13.488;2024-01-15T13:14:37;2.40;1.00
1377;DHT22;682;52.502;13.488;2024-01-15T13:17:04;2.40;1.00
1377;DHT22;682;52.502;13.488;2024-01-15T13:19:33;2.40;1.00
1377;DHT22;682;52.502;13.488;2024-01-15T13:22:00;2.40;1.00
1377;DHT22;682;52.502;13.488;2024-01-15T13:24:29;2.40;1.00
1377;DHT22;682;52.502;13.488;2024-01-15T13:26:56;2.40;1.00
1377;DHT22;682;52.502;13.488;2024-01-15T13:29:24;2.40;1.00
1377;DHT22;682;52.502;13.488;2024-01-15T13:31:51;2.50;1.00
1377;DHT22;682;52.502;13.488;2024-01-15T13:34:19;2.50;1.00
1377;DHT22;682;52.502;13.488;2024-01-15T13:36:46;2.50;1.00
1377;DHT22;682;52.502;13.488;2024-01-15T13:39:12;2.40;1.00
1377;DHT22;682;52.502;13.488;2024-01-15T13:41:39;2.40;1.00
1377;DHT22;682;52.502;13.488;2024-01-15T13:44:08;2.40;1.00
1377;DHT22;682;52.502;13.488;2024-01-15T13:46:37;2.40;1.00
1377;DHT22;682;52.502;13.488;2024-01-15T13:49:04;2.40;1.00
1377;DHT22;682;52.502;13.488;2024-01-15T13:51:32;2.40;1.00
1377;DHT22;682;52.502;13.488;2024-01-15T13:54:00;2.30;1.00
1377;DHT22;682;52.502;13.488;2024-01-15T13:56:29;2.40;1.00
1377;DHT22;682;52.502;13.488;2024-01-15T13:58:58;2.40;1.00
1377;DHT22;682;52.502;13.488;2024-01-15T14:01:25;2.50;1.00
1377;DHT22;682;52.502;13.488;2024-01-15T14:03:55;2.40;1.00
1377;DHT22;682;52.502;13.488;2024-01-15T14:06:22;2.40;1.00
1377;DHT22;682;52.502;13.488;2024-01-15T14:08:49;2.40;1.00
1377;DHT22;682;52.502;13.488;2024-01-15T14:11:17;2.40;1.00
1377;DHT22;682;52.502;13.488;2024-01-15T14:13:44;2.30;1.00
1377;DHT22;682;52.502;13.488;2024-01-15T14:16:11;2.40;1.00
1377;DHT22;682;52.502;13.488;2024-01-15T14:18:38;2.40;1.00
1377;DHT22;682;52.502;13.488;2024-01-15T14:21:07;2.40;1.00
1377;DHT22;682;52.502;13.488;2024-01-15T14:23:35;2.30;1.00
1377;DHT22;682;52.502;13.488;2024-01-15T14:26:02;2.30;1.00
1377;DHT22;682;52.502;13.488;2024-01-15T14:28:30;2.30;1.00
1377;DHT22;682;52.502;13.488;2024-01-15T14:30:57;2.30;1.00
1377;DHT22;682;52.502;13.488;2024-01-15T14:33:25;2.30;1.00
1377;DHT22;682;52.502;13.488;2024-01-15T14:35:52;2.30;1.00
1377;DHT22;682;52.502;13.488;2024-01-15T14:38:21;2.40;1.00
1377;DHT22;682;52.502;13.488;2024-01-15T14:40:48;2.40;1.00
1377;DHT22;682;52.502;13.488;2024-01-15T14:43:16;2.40;1.00
1377;DHT22;682;52.502;13.488;2024-01-15T14:45:43;2.50;1.00
1377;DHT22;682;52.502;13.488;2024-01-15T14:48:10;2.40;1.00
1377;DHT22;682;52.502;13.488;2024-01-15T14:50:39;2.40;1.00
1377;DHT22;682;52.502;13.488;2024-01-15T14:53:07;2.50;1.00
1377;DHT22;682;52.502;13.488;2024-01-15T14:55:35;2.50;1.00
1377;DHT22;682;52.502;13.488;2024-01-15T14:58:03;2.50;1.00
1377;DHT22;682;52.502;13.488;2024-01-15T15:00:30;2.50;1.00
1377;DHT22;682;52.502;13.488;2024-01-15T15:02:57;2.50;1.00
1377;DHT22;682;52.502;13.488;2024-01-15T15:05:25;2.50;1.00
1377;DHT22;682;52.502;13.488;2024-01-15T15:07:53;2.50;1.00
1377;DHT22;682;52.502;13.488;2024-01-15T15:10:21;2.60;1.00
1377;DHT22;682;52.502;13.488;2024-01-15T15:12:50;2.60;1.00
1377;DHT22;682;52.502;13.488;2024-01-15T15:15:17;2.60;1.00
1377;DHT22;682;52.502;13.488;2024-01-15T15:17:44;2.50;1.00
1377;DHT22;682;52.502;13.488;2024-01-15T15:20:11;2.50;1.00
1377;DHT22;682;52.502;13.488;2024-01-15T15:22:38;2.50;1.00
1377;DHT22;682;52.502;13.488;2024-01-15T15:25:06;2.50;1.00
1377;DHT22;682;52.502;13.488;2024-01-15T15:27:35;2.50;1.00
1377;DHT22;682;52.502;13.488;2024-01-15T15:30:05;2.50;1.00
1377;DHT22;682;52.502;13.488;2024-01-15T15:32:35;2.50;1.00
1377;DHT22;682;52.502;13.488;2024-01-15T15:35:04;2.50;1.00
1377;DHT22;682;52.502;13.488;2024-01-15T15:37:32;2.40;1.00
1377;DHT22;682;52.502;13.488;2024-01-15T15:39:59;2.40;1.00
1377;DHT22;682;52.502;13.488;2024-01-15T15:42:26;2.40;1.00
1377;DHT22;682;52.502;13.488;2024-01-15T15:44:53;2.40;1.00
1377;DHT22;682;52.502;13.488;2024-01-15T15:47:23;2.50;1.00
1377;DHT22;682;52.502;13.488;2024-01-15T15:49:50;2.50;1.00
1377;DHT22;682;52.502;13.488;2024-01-15T15:52:16;2.50;1.00
1377;DHT22;682;52.502;13.488;2024-01-15T15:54:44;2.50;1.00
1377;DHT22;682;52.502;13.488;2024-01-15T15:57:11;2.40;1.00
1377;DHT22;682;52.502;13.488;2024-01-15T15:59:39;2.40;1.00
1377;DHT22;682;52.502;13.488;2024-01-15T16:02:08;2.40;1.00
1377;DHT22;682;52.502;13.488;2024-01-15T16:04:36;2.40;1.00
1377;DHT22;682;52.502;13.488;2024-01-15T16:07:04;2.40;1.00
1377;DHT22;682;52.502;13.488;2024-01-15T16:09:35;2.40;1.00
1377;DHT22;682;52.502;13.488;2024-01-15T16:12:03;2.40;1.00
1377;DHT22;682;52.502;13.488;2024-01-15T16:14:30;2.40;1.00
1377;DHT22;682;52.502;13.488;2024-01-15T16:16:58;2.40;1.00
1377;DHT22;682;52.502;13.488;2024-01-15T16:19:25;2.40;1.00
1377;DHT22;682;52.502;13.488;2024-01-15T16:21:54;2.40;1.00
1377;DHT22;682;52.502;13.488;2024-01-15T16:24:23;2.40;1.00
1377;DHT22;682;52.502;13.488;2024-01-15T16:26:50;2.50;1.00
1377;DHT22;682;52.502;13.488;2024-01-15T16:29:17;2.50;1.00
1377;DHT22;682;52.502;13.488;2024-01-15T16:31:45;2.50;1.00
1377;DHT22;682;52.502;13.488;2024-01-15T16:34:12;2.40;1.00
1377;DHT22;682;52.502;13.488;2024-01-15T16:36:39;2.40;1.00
1377;DHT22;682;52.502;13.488;2024-01-15T16:39:08;2.40;1.00
1377;DHT22;682;52.502;13.488;2024-01-15T16:41:37;2.30;1.00